createdAt,value
2019-06-26T00:02:00.227Z,101515.65
2019-06-26T00:04:35.569Z,101522.11
2019-06-26T00:07:09.782Z,101511.61
2019-06-26T00:09:43.948Z,101511.61
2019-06-26T00:12:20.300Z,101516.22
2019-06-26T00:14:54.646Z,101512.88
2019-06-26T00:17:28.827Z,101504.03
2019-06-26T00:20:03.247Z,101506.81
2019-06-26T00:22:38.781Z,101506.41
2019-06-26T00:25:16.378Z,101509.98
2019-06-26T00:27:50.300Z,101506.90
2019-06-26T00:30:24.813Z,101506.41
2019-06-26T00:33:01.137Z,101510.24
2019-06-26T00:35:35.198Z,101508.90
2019-06-26T00:38:09.589Z,101506.04
2019-06-26T00:41:05.996Z,101508.73
2019-06-26T00:43:45.083Z,101504.66
2019-06-26T00:46:20.158Z,101507.06
2019-06-26T00:48:56.309Z,101510.23
2019-06-26T00:51:30.464Z,101509.30
2019-06-26T01:02:26.715Z,101508.19
2019-06-26T01:05:03.324Z,101500.33
2019-06-26T01:07:39.009Z,101502.72
2019-06-26T01:10:16.232Z,101500.52
2019-06-26T01:12:51.236Z,101499.17
2019-06-26T01:15:26.845Z,101489.32
2019-06-26T01:18:05.670Z,101495.84
2019-06-26T01:20:42.539Z,101498.34
2019-06-26T01:23:17.626Z,101486.89
2019-06-26T01:25:52.075Z,101486.89
2019-06-26T01:28:27.202Z,101494.09
2019-06-26T01:31:39.720Z,101493.31
2019-06-26T01:37:52.145Z,101483.92
2019-06-26T01:40:35.943Z,101478.69
2019-06-26T01:43:44.522Z,101487.92
2019-06-26T01:46:20.429Z,101487.98
2019-06-26T01:49:03.498Z,101487.98
2019-06-26T01:51:54.945Z,101484.11
2019-06-26T01:54:35.731Z,101490.23
2019-06-26T01:57:09.578Z,101483.04
2019-06-26T01:59:44.157Z,101478.72
2019-06-26T02:02:18.092Z,101485.97
2019-06-26T02:04:52.522Z,101486.52
2019-06-26T02:07:26.552Z,101480.80
2019-06-26T02:10:00.568Z,101480.80
2019-06-26T02:12:34.793Z,101482.06
2019-06-26T02:15:10.836Z,101479.45
2019-06-26T02:17:45.159Z,101482.00
2019-06-26T02:20:19.649Z,101487.73
2019-06-26T02:22:54.255Z,101489.08
2019-06-26T02:25:28.226Z,101488.97
2019-06-26T02:28:02.315Z,101490.08
2019-06-26T02:30:36.189Z,101491.50
2019-06-26T02:33:10.371Z,101491.68
2019-06-26T02:35:47.350Z,101489.55
2019-06-26T02:38:23.052Z,101485.87
2019-06-26T02:40:59.873Z,101490.00
2019-06-26T02:43:34.617Z,101490.93
2019-06-26T02:46:10.469Z,101487.47
2019-06-26T02:48:44.644Z,101484.97
2019-06-26T02:51:18.876Z,101486.48
2019-06-26T02:53:52.940Z,101481.75
2019-06-26T03:04:29.138Z,101478.59
2019-06-26T03:07:04.504Z,101485.78
2019-06-26T03:09:42.435Z,101483.66
2019-06-26T03:12:18.336Z,101479.58
2019-06-26T03:15:20.978Z,101482.56
2019-06-26T03:20:58.171Z,101481.30
2019-06-26T03:23:34.245Z,101482.34
2019-06-26T03:26:09.776Z,101481.41
2019-06-26T03:29:26.915Z,101485.50
2019-06-26T03:32:08.421Z,101482.19
2019-06-26T03:34:44.524Z,101478.72
2019-06-26T03:37:21.325Z,101479.33
2019-06-26T03:39:59.047Z,101481.69
2019-06-26T03:42:34.343Z,101480.53
2019-06-26T03:45:24.575Z,101474.62
2019-06-26T03:47:43.997Z,101473.76
2019-06-26T03:50:17.373Z,101475.40
2019-06-26T03:52:50.446Z,101477.93
2019-06-26T03:55:23.878Z,101475.37
2019-06-26T03:57:56.963Z,101474.14
2019-06-26T04:00:41.436Z,101472.47
2019-06-26T04:03:15.463Z,101472.91
2019-06-26T04:05:49.638Z,101473.16
2019-06-26T04:08:22.806Z,101474.13
2019-06-26T04:10:55.954Z,101476.69
2019-06-26T04:13:29.774Z,101476.22
2019-06-26T04:16:02.860Z,101483.36
2019-06-26T04:18:36.091Z,101474.00
2019-06-26T04:21:09.232Z,101474.95
2019-06-26T04:23:42.411Z,101477.20
2019-06-26T04:26:15.490Z,101474.13
2019-06-26T04:28:48.725Z,101479.55
2019-06-26T04:31:21.883Z,101471.13
2019-06-26T04:33:55.044Z,101466.75
2019-06-26T04:36:28.205Z,101466.75
2019-06-26T04:39:01.919Z,101474.45
2019-06-26T04:41:36.425Z,101465.53
2019-06-26T04:44:10.043Z,101465.53
2019-06-26T04:46:44.141Z,101470.90
2019-06-26T04:49:17.637Z,101471.00
2019-06-26T04:51:51.237Z,101463.61
2019-06-26T04:54:25.067Z,101468.70
2019-06-26T04:56:58.497Z,101470.11
2019-06-26T04:59:31.978Z,101465.42
2019-06-26T05:02:05.362Z,101465.42
2019-06-26T05:04:38.789Z,101468.48
2019-06-26T05:07:12.881Z,101462.91
2019-06-26T05:09:46.718Z,101454.05
2019-06-26T05:12:20.182Z,101458.80
2019-06-26T05:14:53.642Z,101456.87
2019-06-26T05:17:27.336Z,101456.97
2019-06-26T05:20:00.847Z,101455.05
2019-06-26T05:22:34.258Z,101450.75
2019-06-26T05:25:08.175Z,101449.40
2019-06-26T05:27:41.749Z,101452.55
2019-06-26T05:30:16.025Z,101449.88
2019-06-26T05:32:49.657Z,101445.30
2019-06-26T05:35:23.531Z,101437.39
2019-06-26T05:37:57.377Z,101441.80
2019-06-26T05:40:30.908Z,101440.16
2019-06-26T05:43:04.506Z,101434.20
2019-06-26T05:45:38.097Z,101439.91
2019-06-26T05:48:11.742Z,101444.73
2019-06-26T05:50:46.342Z,101443.17
2019-06-26T05:53:19.805Z,101440.24
2019-06-26T05:55:53.181Z,101436.48
2019-06-26T05:58:26.581Z,101432.31
2019-06-26T06:01:00.265Z,101436.98
2019-06-26T06:03:33.974Z,101436.63
2019-06-26T06:06:08.734Z,101435.39
2019-06-26T06:08:42.636Z,101444.61
2019-06-26T06:11:18.013Z,101441.73
2019-06-26T06:13:51.580Z,101444.02
2019-06-26T06:16:24.989Z,101444.63
2019-06-26T06:18:58.986Z,101445.40
2019-06-26T06:21:33.178Z,101439.19
2019-06-26T06:24:07.554Z,101441.33
2019-06-26T06:26:43.667Z,101440.48
2019-06-26T06:29:17.280Z,101444.27
2019-06-26T06:31:50.980Z,101442.42
2019-06-26T06:34:24.578Z,101440.70
2019-06-26T06:36:58.228Z,101431.98
2019-06-26T06:39:31.863Z,101439.08
2019-06-26T06:42:05.540Z,101445.48
2019-06-26T06:44:38.993Z,101437.50
2019-06-26T06:47:12.250Z,101444.49
2019-06-26T06:49:45.480Z,101439.94
2019-06-26T06:52:18.575Z,101423.02
2019-06-26T06:54:51.759Z,101437.91
2019-06-26T06:57:24.990Z,101433.53
2019-06-26T06:59:59.158Z,101433.61
2019-06-26T07:02:33.108Z,101438.03
2019-06-26T07:05:06.579Z,101427.69
2019-06-26T07:07:39.746Z,101430.05
2019-06-26T07:10:13.201Z,101430.80
2019-06-26T07:12:46.440Z,101430.27
2019-06-26T07:15:20.285Z,101421.69
2019-06-26T07:17:53.842Z,101429.90
2019-06-26T07:20:26.987Z,101425.50
2019-06-26T07:23:00.885Z,101421.95
2019-06-26T07:25:34.193Z,101422.66
2019-06-26T07:28:08.462Z,101421.55
2019-06-26T07:30:41.867Z,101423.23
2019-06-26T07:33:15.535Z,101422.52
2019-06-26T07:35:48.840Z,101422.84
2019-06-26T07:38:22.173Z,101422.00
2019-06-26T07:40:55.576Z,101416.57
2019-06-26T07:43:30.215Z,101417.79
2019-06-26T07:46:03.667Z,101417.34
2019-06-26T07:48:37.060Z,101417.18
2019-06-26T07:51:10.841Z,101417.08
2019-06-26T07:53:44.238Z,101418.05
2019-06-26T07:56:17.764Z,101410.09
2019-06-26T07:58:52.256Z,101411.20
2019-06-26T08:01:26.636Z,101414.70
2019-06-26T08:04:01.160Z,101408.06
2019-06-26T08:06:34.940Z,101411.01
2019-06-26T08:09:09.898Z,101400.28
2019-06-26T08:11:44.844Z,101397.97
2019-06-26T08:14:19.707Z,101395.42
2019-06-26T08:16:53.543Z,101398.12
2019-06-26T08:19:27.299Z,101398.48
2019-06-26T08:22:01.187Z,101400.59
2019-06-26T08:24:36.314Z,101394.78
2019-06-26T08:27:13.225Z,101391.73
2019-06-26T08:29:47.240Z,101394.66
2019-06-26T08:32:26.040Z,101393.37
2019-06-26T08:34:59.446Z,101391.48
2019-06-26T08:37:35.304Z,101378.02
2019-06-26T08:40:09.834Z,101369.83
2019-06-26T08:42:44.189Z,101367.97
2019-06-26T08:45:25.371Z,101367.45
2019-06-26T08:48:13.484Z,101362.84
2019-06-26T08:50:34.424Z,101366.07
2019-06-26T08:53:09.769Z,101365.23
2019-06-26T08:55:48.661Z,101367.30
2019-06-26T08:58:27.378Z,101365.59
2019-06-26T09:01:07.289Z,101363.14
2019-06-26T09:03:43.749Z,101363.64
2019-06-26T09:06:17.895Z,101358.84
2019-06-26T09:08:54.275Z,101365.52
2019-06-26T09:11:28.016Z,101356.48
2019-06-26T09:14:05.534Z,101360.05
2019-06-26T09:16:42.415Z,101355.67
2019-06-26T09:19:17.759Z,101357.88
2019-06-26T09:21:57.086Z,101350.88
2019-06-26T09:24:41.643Z,101344.33
2019-06-26T09:28:09.124Z,101349.13
2019-06-26T09:32:14.049Z,101337.42
2019-06-26T09:38:33.965Z,101335.88
2019-06-26T09:41:54.877Z,101328.60
2019-06-26T09:48:32.998Z,101321.97
2019-06-26T09:52:03.585Z,101322.88
2019-06-26T09:59:32.845Z,101314.91
2019-06-26T10:02:08.331Z,101308.80
2019-06-26T10:04:49.092Z,101306.77
2019-06-26T10:07:26.395Z,101311.08
2019-06-26T10:10:23.458Z,101290.86
2019-06-26T10:13:01.121Z,101294.94
2019-06-26T10:15:36.167Z,101292.87
2019-06-26T10:18:13.929Z,101297.83
2019-06-26T10:20:55.521Z,101289.58
2019-06-26T10:31:55.534Z,101280.06
2019-06-26T10:34:47.789Z,101286.11
2019-06-26T10:40:39.239Z,101270.26
2019-06-26T10:43:29.175Z,101263.75
2019-06-26T10:46:08.209Z,101257.68
2019-06-26T10:48:46.525Z,101256.44
2019-06-26T10:51:20.486Z,101246.92
2019-06-26T10:53:56.646Z,101248.03
2019-06-26T10:56:34.684Z,101255.73
2019-06-26T10:59:10.254Z,101251.17
2019-06-26T11:01:45.332Z,101245.50
2019-06-26T11:04:28.517Z,101245.53
2019-06-26T11:07:02.568Z,101226.95
2019-06-26T11:09:38.165Z,101226.09
2019-06-26T11:12:21.565Z,101216.43
2019-06-26T11:14:55.992Z,101215.05
2019-06-26T11:17:34.384Z,101218.92
2019-06-26T11:20:09.501Z,101212.64
2019-06-26T11:23:07.936Z,101211.12
2019-06-26T11:25:56.839Z,101199.37
2019-06-26T11:28:36.545Z,101208.17
2019-06-26T11:31:13.578Z,101201.64
2019-06-26T11:33:55.655Z,101164.44
2019-06-26T11:36:29.229Z,101187.53
2019-06-26T11:39:04.194Z,101185.81
2019-06-26T11:41:42.668Z,101169.26
2019-06-26T11:44:16.558Z,101174.09
2019-06-26T11:46:50.724Z,101172.20
2019-06-26T11:49:27.544Z,101177.69
2019-06-26T11:52:07.035Z,101164.41
2019-06-26T11:54:41.114Z,101160.77
2019-06-26T11:57:23.681Z,101153.42
2019-06-26T11:59:54.111Z,101154.92
2019-06-26T12:02:32.975Z,101152.36
2019-06-26T12:05:08.403Z,101146.42
2019-06-26T12:07:42.336Z,101153.13
2019-06-26T12:10:17.081Z,101146.05
2019-06-26T12:12:54.519Z,101145.03
2019-06-26T12:15:32.107Z,101144.30
2019-06-26T12:18:08.348Z,101134.81
2019-06-26T12:20:43.547Z,101137.16
2019-06-26T12:23:17.050Z,101134.06
2019-06-26T12:25:53.933Z,101132.33
2019-06-26T12:28:29.865Z,101121.34
2019-06-26T12:32:13.646Z,101119.29
2019-06-26T12:50:35.459Z,101102.05
2019-06-26T12:53:04.382Z,101099.16
2019-06-26T12:55:38.541Z,101093.58
2019-06-26T12:58:19.979Z,101078.23
2019-06-26T13:00:51.663Z,101081.41
2019-06-26T13:03:25.195Z,101078.46
2019-06-26T13:06:03.575Z,101082.30
2019-06-26T13:08:37.991Z,101089.74
2019-06-26T13:11:12.993Z,101082.64
2019-06-26T13:14:02.413Z,101081.86
2019-06-26T13:16:29.323Z,101072.96
2019-06-26T13:19:06.369Z,101067.35
2019-06-26T13:21:39.911Z,101063.56
2019-06-26T13:24:13.536Z,101059.12
2019-06-26T13:26:47.140Z,101057.61
2019-06-26T13:29:20.924Z,101059.12
2019-06-26T13:31:54.871Z,101055.12
2019-06-26T13:34:30.112Z,101057.78
2019-06-26T13:37:07.323Z,101050.54
2019-06-26T13:39:40.398Z,101053.20
2019-06-26T13:42:15.181Z,101046.50
2019-06-26T13:44:48.729Z,101044.06
2019-06-26T13:47:22.304Z,101044.48
2019-06-26T13:49:55.898Z,101041.95
2019-06-26T13:52:29.612Z,101040.89
2019-06-26T13:55:03.116Z,101036.34
2019-06-26T13:57:40.178Z,101032.53
2019-06-26T14:00:19.747Z,101027.81
2019-06-26T14:02:54.742Z,101020.30
2019-06-26T14:05:29.663Z,101024.27
2019-06-26T14:08:03.357Z,101024.02
2019-06-26T14:10:37.353Z,101016.91
2019-06-26T14:13:10.937Z,101018.70
2019-06-26T14:15:46.111Z,101024.63
2019-06-26T14:18:19.622Z,101021.99
2019-06-26T14:20:53.990Z,101020.81
2019-06-26T14:23:29.251Z,101022.27
2019-06-26T14:26:02.767Z,101013.29
2019-06-26T14:28:38.269Z,101008.17
2019-06-26T14:31:11.787Z,101003.45
2019-06-26T14:33:50.145Z,101005.12
2019-06-26T14:36:23.914Z,101002.45
2019-06-26T14:39:09.212Z,101003.84
2019-06-26T14:41:48.086Z,101006.37
2019-06-26T14:44:27.259Z,101004.81
2019-06-26T14:47:04.042Z,100998.61
2019-06-26T14:49:42.659Z,100988.02
2019-06-26T14:52:19.758Z,100988.14
2019-06-26T14:54:58.192Z,100994.23
2019-06-26T14:57:34.390Z,100990.23
2019-06-26T15:00:09.794Z,100987.56
2019-06-26T15:02:46.145Z,100981.64
2019-06-26T15:05:19.872Z,100992.99
2019-06-26T15:07:55.560Z,100987.45
2019-06-26T15:10:29.336Z,100987.92
2019-06-26T15:13:07.567Z,100988.92
2019-06-26T15:15:45.625Z,100988.98
2019-06-26T15:18:19.538Z,100991.62
2019-06-26T15:21:00.896Z,100987.91
2019-06-26T15:23:39.749Z,100982.16
2019-06-26T15:26:23.390Z,100981.91
2019-06-26T15:28:54.164Z,100976.81
2019-06-26T15:31:27.869Z,100979.29
2019-06-26T15:34:03.824Z,100972.44
2019-06-26T15:36:46.994Z,100966.95
2019-06-26T15:39:39.665Z,100953.04
2019-06-26T15:42:15.594Z,100952.73
2019-06-26T15:44:50.800Z,100962.72
2019-06-26T15:48:11.197Z,100961.88
2019-06-26T15:50:49.072Z,100963.43
2019-06-26T15:53:28.138Z,100956.58
2019-06-26T15:56:06.427Z,100947.30
2019-06-26T15:58:42.137Z,100952.34
2019-06-26T16:01:15.836Z,100947.09
2019-06-26T16:03:52.822Z,100944.17
2019-06-26T16:06:45.669Z,100945.72
2019-06-26T16:09:22.159Z,100935.95
2019-06-26T16:11:58.913Z,100931.18
2019-06-26T16:14:33.721Z,100930.39
2019-06-26T16:17:13.406Z,100936.45
2019-06-26T16:19:47.466Z,100937.81
2019-06-26T16:22:31.864Z,100936.62
2019-06-26T16:25:01.318Z,100935.66
2019-06-26T16:27:34.959Z,100935.09
2019-06-26T16:30:09.406Z,100928.02
2019-06-26T16:33:03.358Z,100934.12
2019-06-26T16:35:43.629Z,100929.75
2019-06-26T16:38:31.069Z,100926.17
2019-06-26T16:41:06.406Z,100889.47
2019-06-26T16:43:40.256Z,100910.84
2019-06-26T16:46:54.743Z,100912.57
2019-06-26T16:49:28.660Z,100911.41
2019-06-26T16:52:03.238Z,100905.14
2019-06-26T16:54:47.752Z,100904.48
2019-06-26T16:57:31.009Z,100908.63
2019-06-26T17:00:21.399Z,100913.83
2019-06-26T17:02:55.406Z,100903.24
2019-06-26T17:05:29.238Z,100911.31
2019-06-26T17:08:05.448Z,100909.98
2019-06-26T17:10:40.357Z,100913.12
2019-06-26T17:16:20.112Z,100911.41
2019-06-26T17:18:53.903Z,100904.81
2019-06-26T17:21:27.232Z,100903.34
2019-06-26T17:24:00.549Z,100898.61
2019-06-26T17:26:34.236Z,100900.88
2019-06-26T17:29:07.552Z,100889.93
2019-06-26T17:31:44.399Z,100890.28
2019-06-26T17:34:18.022Z,100887.78
2019-06-26T17:36:53.223Z,100886.44
2019-06-26T17:39:27.763Z,100885.33
2019-06-26T17:42:01.271Z,100879.05
2019-06-26T17:44:34.769Z,100879.74
2019-06-26T17:47:08.195Z,100886.13
2019-06-26T17:49:42.745Z,100883.97
2019-06-26T17:52:16.119Z,100883.02
2019-06-26T17:54:51.011Z,100884.95
2019-06-26T17:57:24.413Z,100881.93
2019-06-26T17:59:57.854Z,100881.96
2019-06-26T18:02:31.496Z,100885.25
2019-06-26T18:05:08.995Z,100878.13
2019-06-26T18:07:47.409Z,100877.14
2019-06-26T18:10:20.841Z,100879.53
2019-06-26T18:12:54.281Z,100882.79
2019-06-26T18:15:31.448Z,100883.84
2019-06-26T18:18:06.758Z,100882.49
2019-06-26T18:20:40.081Z,100879.94
2019-06-26T18:23:14.937Z,100883.03
2019-06-26T18:25:54.083Z,100885.77
2019-06-26T18:28:23.750Z,100883.55
2019-06-26T18:30:59.190Z,100882.72
2019-06-26T18:33:32.510Z,100885.80
2019-06-26T18:36:06.063Z,100874.90
2019-06-26T18:38:39.559Z,100886.01
2019-06-26T18:41:13.447Z,100886.52
2019-06-26T18:43:46.786Z,100890.61
2019-06-26T18:46:24.785Z,100892.62
2019-06-26T18:48:57.097Z,100886.16
2019-06-26T18:51:36.085Z,100890.77
2019-06-26T18:54:09.711Z,100894.00
2019-06-26T18:56:42.897Z,100898.77
2019-06-26T18:59:16.345Z,100894.50
2019-06-26T19:01:49.631Z,100899.29
2019-06-26T19:04:23.042Z,100893.14
2019-06-26T19:07:00.466Z,100898.09
2019-06-26T19:09:35.691Z,100898.03
2019-06-26T19:12:09.081Z,100901.11
2019-06-26T19:14:46.080Z,100899.02
2019-06-26T19:17:19.887Z,100905.16
2019-06-26T19:19:53.447Z,100905.81
2019-06-26T19:22:27.006Z,100906.83
2019-06-26T19:25:00.994Z,100906.12
2019-06-26T19:27:38.553Z,100906.95
2019-06-26T19:30:12.553Z,100916.97
2019-06-26T19:32:46.599Z,100917.79
2019-06-26T19:35:23.041Z,100916.20
2019-06-26T19:37:56.722Z,100924.86
2019-06-26T19:40:33.616Z,100941.16
2019-06-26T19:43:11.189Z,100941.83
2019-06-26T19:45:44.705Z,100947.76
2019-06-26T19:48:24.605Z,100949.91
2019-06-26T19:50:57.919Z,100950.58
2019-06-26T19:53:31.556Z,100950.36
2019-06-26T19:56:05.026Z,100959.30
2019-06-26T19:58:38.335Z,100955.36
2019-06-26T20:01:11.757Z,100963.08
2019-06-26T20:03:46.223Z,100960.88
2019-06-26T20:06:19.563Z,100965.20
2019-06-26T20:08:57.295Z,100972.95
2019-06-26T20:11:28.073Z,100976.84
2019-06-26T20:14:01.207Z,100975.05
2019-06-26T20:16:53.180Z,100987.61
2019-06-26T20:19:29.394Z,100986.78
2019-06-26T20:22:04.216Z,100993.00
2019-06-26T20:24:44.134Z,100991.72
2019-06-26T20:27:13.334Z,100988.56
2019-06-26T20:29:46.566Z,100993.30
2019-06-26T20:32:19.858Z,100991.83
2019-06-26T20:34:53.146Z,100995.97
2019-06-26T20:37:26.343Z,101003.41
2019-06-26T20:40:00.000Z,101003.63
2019-06-26T20:42:33.380Z,101012.37
2019-06-26T20:45:08.605Z,101010.16
2019-06-26T20:47:42.206Z,101018.81
2019-06-26T20:50:16.730Z,101015.70
2019-06-26T20:52:50.839Z,101017.34
2019-06-26T20:55:24.431Z,101022.16
2019-06-26T20:57:58.758Z,101032.81
2019-06-26T21:00:32.632Z,101028.69
2019-06-26T21:03:05.967Z,101034.76
2019-06-26T21:05:39.237Z,101029.67
2019-06-26T21:08:12.460Z,101035.03
2019-06-26T21:10:47.266Z,101040.39
2019-06-26T21:13:20.898Z,101047.88
2019-06-26T21:15:55.160Z,101053.73
2019-06-26T21:18:28.793Z,101045.92
2019-06-26T21:21:05.046Z,101063.67
2019-06-26T21:23:38.539Z,101061.36
2019-06-26T21:26:11.787Z,101062.51
2019-06-26T21:28:46.206Z,101056.80
2019-06-26T21:31:19.486Z,101063.99
2019-06-26T21:33:52.638Z,101066.24
2019-06-26T21:36:25.893Z,101074.58
2019-06-26T21:38:59.152Z,101067.28
2019-06-26T21:41:32.445Z,101063.53
2019-06-26T21:44:05.858Z,101064.77
2019-06-26T21:46:40.231Z,101070.34
2019-06-26T21:49:13.518Z,101068.67
2019-06-26T21:51:46.722Z,101074.91
2019-06-26T21:54:19.945Z,101077.05
2019-06-26T21:57:11.303Z,101075.13
2019-06-26T22:00:02.312Z,101073.53
2019-06-26T22:02:57.605Z,101078.97
2019-06-26T22:05:32.964Z,101088.82
2019-06-26T22:08:19.512Z,101083.75
2019-06-26T22:10:54.646Z,101086.58
2019-06-26T22:13:28.106Z,101081.88
2019-06-26T22:16:01.553Z,101091.28
2019-06-26T22:18:36.540Z,101099.65
2019-06-26T22:21:09.972Z,101092.31
2019-06-26T22:23:45.765Z,101094.27
2019-06-26T22:26:19.122Z,101090.14
2019-06-26T22:28:52.477Z,101093.49
2019-06-26T22:31:25.996Z,101092.53
2019-06-26T22:33:59.672Z,101098.39
2019-06-26T22:36:39.249Z,101097.92
2019-06-26T22:39:09.211Z,101101.37
2019-06-26T22:41:43.991Z,101101.37
2019-06-26T22:44:17.590Z,101103.23
2019-06-26T22:46:51.115Z,101114.08
2019-06-26T22:49:25.440Z,101102.04
2019-06-26T22:51:59.557Z,101108.45
2019-06-26T22:54:33.128Z,101118.64
2019-06-26T22:57:06.568Z,101117.67
2019-06-26T22:59:41.215Z,101119.03
2019-06-26T23:02:14.850Z,101118.30
2019-06-26T23:04:48.472Z,101116.95
2019-06-26T23:07:22.361Z,101117.18
2019-06-26T23:09:55.814Z,101123.23
2019-06-26T23:12:29.469Z,101120.41
2019-06-26T23:15:04.061Z,101123.00
2019-06-26T23:17:37.628Z,101123.52
2019-06-26T23:20:11.577Z,101123.04
2019-06-26T23:22:46.435Z,101127.48
2019-06-26T23:25:21.334Z,101133.73
2019-06-26T23:27:55.021Z,101129.92
2019-06-26T23:30:28.781Z,101132.99
2019-06-26T23:33:02.315Z,101134.45
2019-06-26T23:35:47.212Z,101134.70
2019-06-26T23:38:16.860Z,101140.31
2019-06-26T23:40:50.532Z,101141.30
2019-06-26T23:43:24.138Z,101148.89
2019-06-26T23:45:57.738Z,101142.14
2019-06-26T23:48:34.237Z,101148.39
2019-06-26T23:51:08.980Z,101148.26
2019-06-26T23:53:48.964Z,101156.59
2019-06-26T23:56:39.479Z,101159.30
2019-06-26T23:58:59.663Z,101159.23
